LFRV

Vannes-Meucon Airport

Airport
ICAO code
LFRV
IATA Code
VNE
Summary
ICAO Region
EUR
ICAO Territory
Location

, Bretagne

Serving
Vannes
Elevation
446 ft
Coordinates
47° 43' 24" N , 2° 43' 7" W
Metar
Observation
LFRV 012300Z AUTO 04007KT 5000 BR NSC 01/01 Q1025
Station
Vannes-Meucon
Date/Time
2022-12-01 23:00:00
Wind direction
40°
Wind speed
07 kts
Lowest cloud amount
nil significant cloud
Temperature
1°C
Dew point
1°C
Humidity
100%
QNH
1025 hPa
Weather condition
n/a

Runways

Designator Length Width Surface Rops
8/26 1025 60 GRS No/No
4/22 1530 45 ASP No/No

Airport map

Aerial View

SKYbrary Partners:

Safety knowledge contributed by: